createdAt,value
2023-02-27T22:19:02.445Z,0.53
2023-02-27T22:20:03.411Z,0.52
2023-02-27T22:21:03.359Z,0.51
2023-02-27T22:22:03.420Z,0.49
2023-02-27T22:23:03.389Z,0.49
2023-02-27T22:24:03.379Z,0.51
2023-02-27T22:25:03.369Z,0.48
2023-02-27T22:26:03.416Z,0.51
2023-02-27T22:27:03.419Z,0.51
2023-02-27T22:28:03.309Z,0.52
2023-02-27T22:29:03.400Z,0.52
2023-02-27T22:30:05.190Z,0.51
2023-02-27T22:31:03.368Z,0.49
2023-02-27T22:32:03.375Z,0.48
2023-02-27T22:33:03.287Z,0.45
2023-02-27T22:34:03.288Z,0.45
2023-02-27T22:36:29.572Z,0.45
2023-02-27T22:36:34.626Z,0.48
2023-02-27T22:37:34.605Z,0.48
2023-02-27T22:38:34.657Z,0.48
2023-02-27T22:39:34.602Z,0.43
2023-02-27T22:40:34.588Z,0.43
2023-02-27T22:41:34.586Z,0.41
2023-02-27T22:42:34.556Z,0.38
2023-02-27T22:43:34.541Z,0.37
2023-02-27T22:44:34.559Z,0.37
2023-02-27T22:45:34.518Z,0.34
2023-02-27T22:46:34.625Z,0.34
2023-02-27T22:47:34.517Z,0.34
2023-02-27T22:48:34.487Z,0.34
2023-02-27T22:49:34.460Z,0.30
2023-02-27T22:50:34.459Z,0.28
2023-02-27T22:51:34.483Z,0.28
2023-02-27T22:52:34.494Z,0.26
2023-02-27T22:55:23.232Z,0.28
2023-02-27T22:56:24.062Z,0.25
2023-02-27T22:57:24.027Z,0.25
2023-02-27T22:58:24.002Z,0.22
2023-02-27T22:59:23.999Z,0.25
2023-02-27T23:00:24.042Z,0.23
2023-02-27T23:01:24.109Z,0.26
2023-02-27T23:02:23.972Z,0.26
2023-02-27T23:03:24.134Z,0.28
2023-02-27T23:04:23.995Z,0.25
2023-02-27T23:05:23.952Z,0.25
2023-02-27T23:06:23.956Z,0.25
2023-02-27T23:07:23.945Z,0.26
2023-02-27T23:08:23.925Z,0.25
2023-02-27T23:09:23.955Z,0.25
2023-02-27T23:10:23.960Z,0.22
2023-02-27T23:11:23.921Z,0.22
2023-02-27T23:12:30.392Z,0.23
